Аэропорт: Сокол. Магадан

ICAO: UHMM

METAR:
2020-06-04 03:30:00
UHMM 040330Z 21006MPS 9999 SCT040 19/05 Q1011 R10/70D NOSIG RMK QFE744 R28/27007MPS
METAR:
2020-06-04 01:58:00
TAF UHMM 040158Z 0403/0509 16003G08MPS 9999 SCT040CB TEMPO 0403/0410 24005G10MPS FM041200 24003G08MPS 3100 BR FEW005 BKN011 TEMPO 0412/0424 0400 FG VV003 BECMG 0500/0502 9999 NSW SCT040CB